Pagrindinis puslapis
METAR-TAF:

METAR-TAF

Oro uostai :

Konija, Turkija

platuma: 37-58N, ilguma: 032-33E, Aukštis: 1032 m

Dabartinis oras

Ataskaita buvo paskelbta 1 valandą ir 6 minutes, ne 13:50 UTC
Vėjas 13 kt iš Šiaurės, svyruoja nuo Šiaurės/Šiaurės Vakarų ir Šiaurės/Šiaurės Rytų
Temperatūra 21°C
Drėgmė 30%
Slėgis 1021 hPa
Matomumas 10 km arba daugiau
nėra debesų žemiau 1500 m ir nėra kamuolinių lietaus debesų

METAR: LTAN 251350Z 36013KT 330V030 CAVOK 21/03 Q1021 NOSIG

Laikas: 17:56 (14:56 UTC)

Prognozė

Ataskaita buvo paskelbta 1 valandą ir 16 minutes, ne 13:40 UTC
Prognozė galioja nuo 25 metu 15 UTC su 25 metu 24 UTC
Vėjas 8 kt iš Šiaurės
Matomumas 10 km arba daugiau
nėra debesų žemiau 1500 m ir nėra kamuolinių lietaus debesų

TAF: LTAN 251340Z 2515/2524 36008KT CAVOK

Orai ataskaitas ir orų prognozės (METAR, TAF).

turimą stotys yra geltonos ir raudonos taškus žemėlapyje.

Perkelti pele per norėdami pamatyti stoties vardą.

Tada spustelėkite, norėdami matyti oro stebėjimo ir prognozės.

Norėdami pakeisti žemėlapį: spustelėkite ant žalios mygtukų su juodo kryžiaus žemyn,; žalią mygtuką su brūkšneliu, jei norite nutolinti; arba žalių rodyklių gretimoms žemėlapius.


METAR-TAF: